createdAt,value
2019-01-23T00:01:45.382Z,100519.73
2019-01-23T00:04:14.020Z,100513.91
2019-01-23T00:06:43.061Z,100513.19
2019-01-23T00:09:12.055Z,100516.61
2019-01-23T00:11:40.692Z,100510.02
2019-01-23T00:14:09.732Z,100514.14
2019-01-23T00:16:38.731Z,100511.20
2019-01-23T00:19:07.728Z,100503.83
2019-01-23T00:21:36.945Z,100503.98
2019-01-23T00:24:06.122Z,100499.70
2019-01-23T00:26:34.780Z,100495.41
2019-01-23T00:29:04.109Z,100494.46
2019-01-23T00:31:33.097Z,100485.25
2019-01-23T00:34:02.092Z,100489.14
2019-01-23T00:36:31.085Z,100486.77
2019-01-23T00:39:00.077Z,100481.52
2019-01-23T00:41:28.971Z,100477.00
2019-01-23T00:43:57.962Z,100475.25
2019-01-23T00:46:26.774Z,100475.17
2019-01-23T00:48:55.402Z,100469.66
2019-01-23T00:51:24.741Z,100463.69
2019-01-23T00:53:54.454Z,100461.04
2019-01-23T00:56:23.444Z,100469.19
2019-01-23T00:58:52.164Z,100469.67
2019-01-23T01:01:20.883Z,100466.78
2019-01-23T01:03:49.821Z,100465.98
2019-01-23T01:06:18.918Z,100463.80
2019-01-23T01:08:47.897Z,100464.95
2019-01-23T01:11:16.797Z,100465.34
2019-01-23T01:13:45.852Z,100461.77
2019-01-23T01:16:14.539Z,100465.27
2019-01-23T01:18:43.239Z,100466.14
2019-01-23T01:21:11.997Z,100463.13
2019-01-23T01:23:40.701Z,100470.42
2019-01-23T01:26:09.632Z,100469.95
2019-01-23T01:28:38.300Z,100458.92
2019-01-23T01:31:06.962Z,100459.80
2019-01-23T01:33:35.902Z,100462.81
2019-01-23T01:36:05.404Z,100467.72
2019-01-23T01:38:34.044Z,100461.54
2019-01-23T01:41:02.986Z,100466.22
2019-01-23T01:43:31.649Z,100455.35
2019-01-23T01:46:00.285Z,100454.40
2019-01-23T01:48:29.235Z,100454.48
2019-01-23T01:50:57.910Z,100450.19
2019-01-23T01:53:26.538Z,100444.72
2019-01-23T01:55:55.167Z,100448.45
2019-01-23T01:58:24.086Z,100442.58
2019-01-23T02:00:53.186Z,100443.69
2019-01-23T02:03:21.815Z,100439.48
2019-01-23T02:05:50.866Z,100448.84
2019-01-23T02:08:19.511Z,100441.63
2019-01-23T02:10:48.441Z,100446.30
2019-01-23T02:13:17.171Z,100438.69
2019-01-23T02:15:45.798Z,100436.94
2019-01-23T02:18:14.703Z,100442.50
2019-01-23T02:20:43.344Z,100439.48
2019-01-23T02:23:12.440Z,100435.12
2019-01-23T02:25:41.094Z,100439.32
2019-01-23T02:28:10.065Z,100431.99
2019-01-23T02:30:38.955Z,100432.18
2019-01-23T02:33:07.603Z,100434.45
2019-01-23T02:35:36.305Z,100425.41
2019-01-23T02:38:05.321Z,100432.63
2019-01-23T02:40:34.624Z,100429.45
2019-01-23T02:43:03.511Z,100424.38
2019-01-23T02:45:32.405Z,100429.45
2019-01-23T02:48:01.398Z,100428.18
2019-01-23T02:50:30.010Z,100427.63
2019-01-23T02:52:58.652Z,100432.42
2019-01-23T02:55:27.381Z,100429.58
2019-01-23T02:57:56.035Z,100430.84
2019-01-23T03:00:25.447Z,100430.60
2019-01-23T03:02:54.845Z,100429.25
2019-01-23T03:05:23.488Z,100433.30
2019-01-23T03:07:52.138Z,100426.28
2019-01-23T03:10:22.303Z,100434.69
2019-01-23T03:12:51.337Z,100423.66
2019-01-23T03:15:20.727Z,100434.13
2019-01-23T03:17:49.639Z,100436.66
2019-01-23T03:20:19.936Z,100426.75
2019-01-23T03:22:49.052Z,100437.02
2019-01-23T03:25:18.452Z,100436.14
2019-01-23T03:27:47.965Z,100434.79
2019-01-23T03:30:25.711Z,100438.12
2019-01-23T03:32:54.434Z,100435.92
2019-01-23T03:35:23.439Z,100437.79
2019-01-23T03:37:52.535Z,100430.69
2019-01-23T03:40:22.316Z,100427.98
2019-01-23T03:42:51.531Z,100438.05
2019-01-23T03:45:20.650Z,100432.02
2019-01-23T03:47:49.944Z,100440.30
2019-01-23T03:50:20.066Z,100431.82
2019-01-23T03:52:48.809Z,100436.73
2019-01-23T03:55:18.578Z,100439.41
2019-01-23T03:57:47.660Z,100440.11
2019-01-23T04:00:21.249Z,100439.91
2019-01-23T04:02:51.290Z,100439.34
2019-01-23T04:05:20.263Z,100441.80
2019-01-23T04:07:48.983Z,100440.76
2019-01-23T04:10:17.759Z,100441.73
2019-01-23T04:12:47.152Z,100441.09
2019-01-23T04:15:16.223Z,100442.35
2019-01-23T04:17:44.919Z,100438.38
2019-01-23T04:20:15.660Z,100443.76
2019-01-23T04:22:44.771Z,100439.56
2019-01-23T04:25:13.969Z,100440.84
2019-01-23T04:27:43.279Z,100443.38
2019-01-23T04:30:20.039Z,100439.02
2019-01-23T04:32:49.051Z,100440.11
2019-01-23T04:35:18.130Z,100440.03
2019-01-23T04:37:47.252Z,100441.66
2019-01-23T04:40:16.533Z,100446.16
2019-01-23T04:42:45.327Z,100448.69
2019-01-23T04:45:15.028Z,100433.80
2019-01-23T04:47:44.122Z,100438.07
2019-01-23T04:50:14.458Z,100442.18
2019-01-23T04:53:01.149Z,100441.22
2019-01-23T04:55:30.294Z,100439.08
2019-01-23T04:57:59.545Z,100446.21
2019-01-23T05:00:29.575Z,100444.95
2019-01-23T05:02:58.480Z,100451.10
2019-01-23T05:05:27.121Z,100444.77
2019-01-23T05:07:56.604Z,100450.63
2019-01-23T05:10:25.251Z,100447.30
2019-01-23T05:12:54.243Z,100458.70
2019-01-23T05:15:22.963Z,100449.66
2019-01-23T05:17:52.220Z,100455.60
2019-01-23T05:20:21.245Z,100456.39
2019-01-23T05:22:50.213Z,100455.52
2019-01-23T05:25:18.948Z,100463.98
2019-01-23T05:27:47.606Z,100458.83
2019-01-23T05:30:19.019Z,100465.16
2019-01-23T05:32:47.661Z,100466.52
2019-01-23T05:35:16.303Z,100477.52
2019-01-23T05:37:44.938Z,100463.59
2019-01-23T05:40:15.107Z,100460.58
2019-01-23T05:42:43.780Z,100463.02
2019-01-23T05:45:12.618Z,100462.91
2019-01-23T05:47:41.648Z,100472.47
2019-01-23T05:50:13.974Z,100472.55
2019-01-23T05:52:43.000Z,100473.55
2019-01-23T05:55:12.814Z,100481.41
2019-01-23T05:57:41.857Z,100477.92
2019-01-23T06:00:13.925Z,100477.87
2019-01-23T06:02:42.595Z,100478.36
2019-01-23T06:05:12.125Z,100478.05
2019-01-23T06:07:41.105Z,100485.66
2019-01-23T06:10:09.836Z,100491.33
2019-01-23T06:12:38.505Z,100489.36
2019-01-23T06:15:08.394Z,100488.00
2019-01-23T06:17:37.305Z,100491.67
2019-01-23T06:20:07.991Z,100495.39
2019-01-23T06:22:36.643Z,100489.45
2019-01-23T06:25:05.821Z,100494.20
2019-01-23T06:27:35.115Z,100493.34
2019-01-23T06:30:10.192Z,100500.15
2019-01-23T06:32:35.966Z,100495.39
2019-01-23T06:35:05.383Z,100499.58
2019-01-23T06:37:34.364Z,100509.72
2019-01-23T06:40:03.560Z,100509.33
2019-01-23T06:42:32.215Z,100511.77
2019-01-23T06:45:01.141Z,100510.80
2019-01-23T06:47:30.130Z,100512.08
2019-01-23T06:49:59.197Z,100508.45
2019-01-23T06:52:27.838Z,100515.58
2019-01-23T06:54:57.008Z,100516.27
2019-01-23T06:57:26.001Z,100519.80
2019-01-23T06:59:54.678Z,100514.64
2019-01-23T07:02:23.336Z,100513.17
2019-01-23T07:04:52.264Z,100515.43
2019-01-23T07:07:21.153Z,100518.27
2019-01-23T07:09:49.805Z,100512.02
2019-01-23T07:12:18.846Z,100509.09
2019-01-23T07:14:47.829Z,100512.45
2019-01-23T07:17:16.467Z,100511.54
2019-01-23T07:19:45.413Z,100515.25
2019-01-23T07:22:14.047Z,100513.98
2019-01-23T07:24:43.008Z,100516.42
2019-01-23T07:27:11.984Z,100514.98
2019-01-23T07:29:41.300Z,100514.98
2019-01-23T07:32:09.925Z,100519.92
2019-01-23T07:34:38.859Z,100527.25
2019-01-23T07:37:07.859Z,100529.56
2019-01-23T07:39:36.743Z,100531.14
2019-01-23T07:42:05.734Z,100533.84
2019-01-23T07:44:34.381Z,100534.94
2019-01-23T07:47:03.022Z,100540.39
2019-01-23T07:49:31.674Z,100538.03
2019-01-23T07:52:00.310Z,100537.86
2019-01-23T07:54:28.937Z,100542.33
2019-01-23T07:56:57.602Z,100541.23
2019-01-23T07:59:26.646Z,100548.36
2019-01-23T08:01:55.532Z,100546.58
2019-01-23T08:04:24.172Z,100539.38
2019-01-23T08:06:52.792Z,100537.02
2019-01-23T08:09:21.438Z,100544.36
2019-01-23T08:11:50.171Z,100542.83
2019-01-23T08:14:18.897Z,100544.88
2019-01-23T08:16:47.607Z,100536.97
2019-01-23T08:19:16.266Z,100538.02
2019-01-23T08:21:45.333Z,100528.89
2019-01-23T08:24:13.994Z,100529.63
2019-01-23T08:26:42.674Z,100525.34
2019-01-23T08:29:11.432Z,100528.41
2019-01-23T08:31:40.123Z,100525.69
2019-01-23T08:34:09.074Z,100525.83
2019-01-23T08:36:38.379Z,100523.95
2019-01-23T08:39:08.821Z,100529.80
2019-01-23T08:41:37.803Z,100536.94
2019-01-23T08:44:06.898Z,100531.25
2019-01-23T08:46:35.558Z,100531.83
2019-01-23T08:49:05.040Z,100528.58
2019-01-23T08:51:33.695Z,100529.92
2019-01-23T08:54:02.774Z,100533.98
2019-01-23T08:56:31.498Z,100532.68
2019-01-23T08:59:00.427Z,100532.15
2019-01-23T09:01:29.449Z,100538.50
2019-01-23T09:03:58.436Z,100536.14
2019-01-23T09:06:27.326Z,100534.64
2019-01-23T09:08:55.960Z,100525.73
2019-01-23T09:11:24.719Z,100531.20
2019-01-23T09:13:54.016Z,100528.94
2019-01-23T09:16:22.657Z,100529.58
2019-01-23T09:18:51.303Z,100532.12
2019-01-23T09:21:20.303Z,100534.73
2019-01-23T09:23:49.260Z,100538.52
2019-01-23T09:26:18.249Z,100535.74
2019-01-23T09:28:46.930Z,100533.78
2019-01-23T09:31:44.399Z,100529.97
2019-01-23T09:34:54.603Z,100534.25
2019-01-23T09:38:08.330Z,100527.47
2019-01-23T09:40:46.521Z,100517.37
2019-01-23T09:44:00.737Z,100529.22
2019-01-23T09:47:13.638Z,100515.47
2019-01-23T09:50:07.159Z,100522.78
2019-01-23T09:52:49.057Z,100529.52
2019-01-23T09:55:17.713Z,100532.48
2019-01-23T09:57:52.867Z,100526.05
2019-01-23T10:00:24.247Z,100527.16
2019-01-23T10:02:52.976Z,100532.39
2019-01-23T10:05:21.627Z,100524.98
2019-01-23T10:07:50.697Z,100523.16
2019-01-23T10:10:19.689Z,100521.50
2019-01-23T10:12:48.853Z,100526.79
2019-01-23T10:15:21.873Z,100530.65
2019-01-23T10:17:50.583Z,100525.91
2019-01-23T10:20:19.237Z,100534.23
2019-01-23T10:22:47.866Z,100539.70
2019-01-23T10:25:16.912Z,100530.78
2019-01-23T10:27:46.143Z,100530.25
2019-01-23T10:30:15.238Z,100530.67
2019-01-23T10:32:44.215Z,100534.30
2019-01-23T10:35:13.803Z,100535.18
2019-01-23T10:37:42.711Z,100526.95
2019-01-23T10:40:13.948Z,100530.89
2019-01-23T10:42:42.954Z,100529.64
2019-01-23T10:45:12.457Z,100529.06
2019-01-23T10:47:41.273Z,100536.52
2019-01-23T10:50:11.500Z,100533.57
2019-01-23T10:52:40.773Z,100532.59
2019-01-23T10:55:09.764Z,100526.58
2019-01-23T10:57:38.554Z,100529.77
2019-01-23T11:00:11.029Z,100527.84
2019-01-23T11:02:40.130Z,100530.52
2019-01-23T11:05:10.691Z,100527.33
2019-01-23T11:07:39.398Z,100521.48
2019-01-23T11:10:11.244Z,100522.91
2019-01-23T11:12:40.297Z,100528.19
2019-01-23T11:15:09.080Z,100523.91
2019-01-23T11:17:37.772Z,100517.58
2019-01-23T11:20:08.912Z,100524.27
2019-01-23T11:22:37.560Z,100530.23
2019-01-23T11:25:07.191Z,100531.06
2019-01-23T11:27:35.929Z,100526.19
2019-01-23T11:30:08.276Z,100526.28
2019-01-23T11:32:37.266Z,100529.45
2019-01-23T11:35:07.404Z,100535.98
2019-01-23T11:37:36.134Z,100525.72
2019-01-23T11:40:08.076Z,100522.38
2019-01-23T11:42:37.029Z,100527.80
2019-01-23T11:45:07.455Z,100533.72
2019-01-23T11:47:36.450Z,100533.55
2019-01-23T11:50:06.776Z,100531.59
2019-01-23T11:52:35.484Z,100527.35
2019-01-23T11:55:04.980Z,100523.05
2019-01-23T11:57:33.960Z,100519.78
2019-01-23T12:00:02.700Z,100521.28
2019-01-23T12:02:32.840Z,100515.08
2019-01-23T12:05:01.768Z,100521.19
2019-01-23T12:07:30.651Z,100518.68
2019-01-23T12:09:59.653Z,100523.40
2019-01-23T12:12:28.370Z,100510.20
2019-01-23T12:14:57.020Z,100526.55
2019-01-23T12:17:26.028Z,100524.77
2019-01-23T12:19:55.006Z,100519.50
2019-01-23T12:22:24.102Z,100514.04
2019-01-23T12:24:53.406Z,100507.78
2019-01-23T12:27:22.057Z,100519.15
2019-01-23T12:29:50.809Z,100510.19
2019-01-23T12:32:19.774Z,100521.13
2019-01-23T12:34:48.427Z,100522.52
2019-01-23T12:37:17.059Z,100518.03
2019-01-23T12:39:46.048Z,100518.47
2019-01-23T12:42:14.755Z,100519.72
2019-01-23T12:44:43.715Z,100521.73
2019-01-23T12:47:12.632Z,100514.70
2019-01-23T12:49:41.507Z,100513.78
2019-01-23T12:52:10.489Z,100515.27
2019-01-23T12:54:39.382Z,100521.47
2019-01-23T12:57:08.054Z,100523.05
2019-01-23T12:59:36.960Z,100517.11
2019-01-23T13:02:09.695Z,100522.12
2019-01-23T13:04:36.435Z,100526.24
2019-01-23T13:07:05.150Z,100523.48
2019-01-23T13:09:34.074Z,100526.88
2019-01-23T13:12:03.057Z,100530.39
2019-01-23T13:14:32.255Z,100526.89
2019-01-23T13:17:01.253Z,100527.19
2019-01-23T13:19:29.880Z,100527.33
2019-01-23T13:21:58.850Z,100530.04
2019-01-23T13:24:27.462Z,100529.42
2019-01-23T13:26:56.409Z,100533.01
2019-01-23T13:29:25.041Z,100534.80
2019-01-23T13:31:54.093Z,100534.96
2019-01-23T13:34:22.730Z,100535.61
2019-01-23T13:36:51.439Z,100540.59
2019-01-23T13:39:20.659Z,100540.59
2019-01-23T13:41:49.688Z,100544.27
2019-01-23T13:44:18.745Z,100551.27
2019-01-23T13:46:47.407Z,100549.41
2019-01-23T13:49:16.323Z,100553.47
2019-01-23T13:51:44.986Z,100550.81
2019-01-23T13:54:13.635Z,100550.09
2019-01-23T13:56:42.589Z,100563.02
2019-01-23T13:59:11.512Z,100570.41
2019-01-23T14:01:40.186Z,100574.92
2019-01-23T14:04:09.162Z,100575.56
2019-01-23T14:06:38.046Z,100572.27
2019-01-23T14:09:07.895Z,100575.28
2019-01-23T14:11:36.964Z,100568.09
2019-01-23T14:14:06.353Z,100575.97
2019-01-23T14:16:35.362Z,100568.37
2019-01-23T14:19:04.249Z,100572.14
2019-01-23T14:21:33.242Z,100577.05
2019-01-23T14:24:02.276Z,100575.44
2019-01-23T14:26:31.233Z,100580.09
2019-01-23T14:28:59.865Z,100580.56
2019-01-23T14:31:28.593Z,100576.60
2019-01-23T14:33:57.638Z,100580.77
2019-01-23T14:36:26.788Z,100582.78
2019-01-23T14:38:55.457Z,100581.17
2019-01-23T14:41:24.476Z,100586.27
2019-01-23T14:43:53.203Z,100589.75
2019-01-23T14:46:21.849Z,100589.75
2019-01-23T14:48:50.470Z,100591.51
2019-01-23T14:51:19.113Z,100595.72
2019-01-23T14:53:48.115Z,100590.55
2019-01-23T14:56:16.823Z,100595.91
2019-01-23T14:58:45.534Z,100595.79
2019-01-23T15:01:14.794Z,100601.42
2019-01-23T15:03:43.990Z,100597.53
2019-01-23T15:06:12.880Z,100600.70
2019-01-23T15:08:41.875Z,100599.36
2019-01-23T15:11:10.870Z,100604.70
2019-01-23T15:13:39.517Z,100597.30
2019-01-23T15:16:08.450Z,100610.16
2019-01-23T15:18:37.086Z,100596.02
2019-01-23T15:21:05.790Z,100607.75
2019-01-23T15:23:34.711Z,100618.41
2019-01-23T15:26:03.361Z,100617.69
2019-01-23T15:28:32.098Z,100615.36
2019-01-23T15:31:00.787Z,100615.44
2019-01-23T15:33:29.428Z,100620.20
2019-01-23T15:35:58.447Z,100618.14
2019-01-23T15:38:27.339Z,100622.59
2019-01-23T15:40:55.950Z,100629.35
2019-01-23T15:43:24.563Z,100628.31
2019-01-23T15:45:53.539Z,100628.00
2019-01-23T15:48:22.160Z,100633.75
2019-01-23T15:50:50.796Z,100635.17
2019-01-23T15:53:20.442Z,100638.42
2019-01-23T15:55:49.383Z,100639.61
2019-01-23T15:58:18.020Z,100640.73
2019-01-23T16:00:46.660Z,100650.41
2019-01-23T16:03:15.384Z,100649.08
2019-01-23T16:05:45.254Z,100643.27
2019-01-23T16:08:14.144Z,100649.63
2019-01-23T16:10:42.817Z,100653.45
2019-01-23T16:13:11.488Z,100650.03
2019-01-23T16:15:43.175Z,100653.77
2019-01-23T16:18:11.803Z,100654.05
2019-01-23T16:20:40.748Z,100657.29
2019-01-23T16:23:09.364Z,100665.44
2019-01-23T16:25:38.324Z,100671.42
2019-01-23T16:28:07.434Z,100664.50
2019-01-23T16:30:38.219Z,100667.35
2019-01-23T16:33:07.256Z,100671.38
2019-01-23T16:35:38.743Z,100664.48
2019-01-23T16:38:09.009Z,100672.84
2019-01-23T16:40:37.787Z,100683.74
2019-01-23T16:43:06.819Z,100676.71
2019-01-23T16:45:35.550Z,100681.70
2019-01-23T16:48:04.354Z,100680.72
2019-01-23T16:50:33.381Z,100686.07
2019-01-23T16:53:02.338Z,100691.55
2019-01-23T16:55:31.394Z,100692.08
2019-01-23T16:58:00.303Z,100686.69
2019-01-23T17:00:29.025Z,100685.59
2019-01-23T17:02:58.503Z,100688.27
2019-01-23T17:05:29.515Z,100691.50
2019-01-23T17:08:00.104Z,100682.41
2019-01-23T17:10:28.868Z,100684.42
2019-01-23T17:12:57.907Z,100688.34
2019-01-23T17:15:26.716Z,100688.34
2019-01-23T17:17:55.520Z,100690.98
2019-01-23T17:20:30.564Z,100691.62
2019-01-23T17:22:59.626Z,100698.83
2019-01-23T17:25:28.607Z,100690.53
2019-01-23T17:27:57.602Z,100693.66
2019-01-23T17:30:26.805Z,100692.54
2019-01-23T17:32:55.427Z,100698.49
2019-01-23T17:35:24.485Z,100698.88
2019-01-23T17:37:53.129Z,100703.34
2019-01-23T17:40:22.266Z,100705.20
2019-01-23T17:42:50.909Z,100712.78
2019-01-23T17:45:22.710Z,100711.33
2019-01-23T17:47:52.012Z,100719.02
2019-01-23T17:50:21.618Z,100720.41
2019-01-23T17:52:50.814Z,100734.63
2019-01-23T17:55:25.154Z,100731.13
2019-01-23T17:57:54.054Z,100735.31
2019-01-23T18:00:26.077Z,100728.38
2019-01-23T18:02:55.406Z,100737.86
2019-01-23T18:05:24.596Z,100735.41
2019-01-23T18:07:53.238Z,100732.80
2019-01-23T18:10:22.683Z,100738.52
2019-01-23T18:12:51.314Z,100743.99
2019-01-23T18:15:21.887Z,100750.22
2019-01-23T18:17:50.889Z,100748.17
2019-01-23T18:20:22.234Z,100757.13
2019-01-23T18:22:51.348Z,100762.22
2019-01-23T18:25:20.253Z,100769.06
2019-01-23T18:27:49.331Z,100770.33
2019-01-23T18:30:24.262Z,100772.56
2019-01-23T18:32:59.652Z,100775.48
2019-01-23T18:35:37.749Z,100777.94
2019-01-23T18:38:17.056Z,100782.41
2019-01-23T18:41:33.047Z,100784.33
2019-01-23T18:44:14.646Z,100786.39
2019-01-23T18:47:06.255Z,100783.55
2019-01-23T18:50:19.180Z,100787.96
2019-01-23T18:52:48.177Z,100793.13
2019-01-23T18:55:17.973Z,100796.35
2019-01-23T18:57:46.984Z,100803.97
2019-01-23T19:00:18.435Z,100812.16
2019-01-23T19:02:47.073Z,100806.36
2019-01-23T19:05:17.670Z,100803.45
2019-01-23T19:07:46.639Z,100811.94
2019-01-23T19:10:16.043Z,100807.77
2019-01-23T19:12:44.762Z,100813.98
2019-01-23T19:15:15.126Z,100817.89
2019-01-23T19:17:44.162Z,100813.21
2019-01-23T19:20:16.055Z,100811.17
2019-01-23T19:22:45.104Z,100818.48
2019-01-23T19:25:14.518Z,100819.75
2019-01-23T19:27:43.370Z,100820.33
2019-01-23T19:30:14.675Z,100820.73
2019-01-23T19:32:43.396Z,100815.75
2019-01-23T19:35:12.204Z,100819.73
2019-01-23T19:37:40.923Z,100812.42
2019-01-23T19:40:10.861Z,100820.16
2019-01-23T19:42:39.508Z,100830.27
2019-01-23T19:45:12.499Z,100829.11
2019-01-23T19:47:41.768Z,100829.81
2019-01-23T19:50:11.859Z,100828.33
2019-01-23T19:52:40.914Z,100825.02
2019-01-23T19:55:11.547Z,100828.55
2019-01-23T19:57:40.181Z,100833.00
2019-01-23T20:00:13.395Z,100832.52
2019-01-23T20:02:42.431Z,100838.28
2019-01-23T20:05:12.824Z,100841.59
2019-01-23T20:07:41.454Z,100845.52
2019-01-23T20:10:14.448Z,100857.39
2019-01-23T20:12:43.030Z,100858.09
2019-01-23T20:15:13.664Z,100861.20
2019-01-23T20:17:42.732Z,100860.44
2019-01-23T20:20:12.414Z,100857.21
2019-01-23T20:22:41.112Z,100857.31
2019-01-23T20:25:13.092Z,100861.10
2019-01-23T20:27:41.981Z,100858.47
2019-01-23T20:30:37.463Z,100861.97
2019-01-23T20:33:06.376Z,100866.84
2019-01-23T20:35:35.383Z,100867.07
2019-01-23T20:38:04.790Z,100866.66
2019-01-23T20:40:33.415Z,100870.47
2019-01-23T20:43:02.087Z,100867.37
2019-01-23T20:45:31.363Z,100868.72
2019-01-23T20:48:00.092Z,100867.85
2019-01-23T20:50:31.216Z,100866.48
2019-01-23T20:52:59.921Z,100873.98
2019-01-23T20:55:29.015Z,100876.98
2019-01-23T20:57:58.273Z,100887.06
2019-01-23T21:00:29.419Z,100895.16
2019-01-23T21:02:58.716Z,100897.98
2019-01-23T21:05:27.456Z,100900.41
2019-01-23T21:07:56.809Z,100901.79
2019-01-23T21:10:26.415Z,100895.52
2019-01-23T21:12:55.037Z,100895.81
2019-01-23T21:15:26.242Z,100890.84
2019-01-23T21:17:55.247Z,100895.44
2019-01-23T21:20:24.232Z,100898.36
2019-01-23T21:22:52.886Z,100893.06
2019-01-23T21:25:21.809Z,100897.67
2019-01-23T21:27:50.433Z,100907.72
2019-01-23T21:30:21.818Z,100899.72
2019-01-23T21:32:50.448Z,100906.55
2019-01-23T21:35:20.340Z,100914.25
2019-01-23T21:37:49.211Z,100916.20
2019-01-23T21:40:23.054Z,100914.73
2019-01-23T21:42:51.803Z,100921.75
2019-01-23T21:45:20.743Z,100930.92
2019-01-23T21:47:50.855Z,100927.61
2019-01-23T21:50:20.963Z,100924.09
2019-01-23T21:52:49.962Z,100923.02
2019-01-23T21:55:20.440Z,100924.29
2019-01-23T21:57:49.157Z,100933.48
2019-01-23T22:00:45.306Z,100932.70
2019-01-23T22:03:13.914Z,100934.20
2019-01-23T22:05:42.880Z,100934.36
2019-01-23T22:08:11.522Z,100939.05
2019-01-23T22:10:40.559Z,100945.39
2019-01-23T22:13:09.454Z,100942.73
2019-01-23T22:15:38.454Z,100941.95
2019-01-23T22:18:08.630Z,100940.88
2019-01-23T22:20:37.272Z,100941.06
2019-01-23T22:23:06.043Z,100945.19
2019-01-23T22:25:34.932Z,100947.31
2019-01-23T22:28:03.929Z,100943.70
2019-01-23T22:30:33.436Z,100949.75
2019-01-23T22:33:02.567Z,100953.75
2019-01-23T22:35:31.627Z,100962.48
2019-01-23T22:38:00.269Z,100962.39
2019-01-23T22:40:28.923Z,100969.12
2019-01-23T22:42:57.889Z,100962.58
2019-01-23T22:45:26.783Z,100970.58
2019-01-23T22:47:55.427Z,100974.58
2019-01-23T22:50:25.972Z,100977.34
2019-01-23T22:52:55.092Z,100973.93
2019-01-23T22:55:24.394Z,100982.81
2019-01-23T22:57:54.105Z,100983.30
2019-01-23T23:00:46.579Z,100978.12
2019-01-23T23:03:18.000Z,100983.00
2019-01-23T23:05:46.690Z,100982.42
2019-01-23T23:08:15.783Z,100980.37
2019-01-23T23:10:44.451Z,100984.08
2019-01-23T23:13:13.452Z,100977.93
2019-01-23T23:15:42.555Z,100977.45
2019-01-23T23:18:11.557Z,100977.45
2019-01-23T23:20:40.446Z,100974.52
2019-01-23T23:23:09.163Z,100984.37
2019-01-23T23:25:38.414Z,100985.28
2019-01-23T23:28:07.423Z,100989.57
2019-01-23T23:30:36.724Z,100983.43
2019-01-23T23:33:05.717Z,101000.20
2019-01-23T23:35:34.709Z,100992.11
2019-01-23T23:38:03.811Z,100988.86
2019-01-23T23:40:32.522Z,100994.80
2019-01-23T23:43:01.154Z,101000.98
2019-01-23T23:45:30.074Z,101017.66
2019-01-23T23:47:58.783Z,101018.93
2019-01-23T23:50:27.453Z,101027.72
2019-01-23T23:52:56.062Z,101015.62
2019-01-23T23:55:24.703Z,101026.87
2019-01-23T23:57:53.718Z,101028.34
